Time;durP1;ratioP1;P1;durP2;ratioP2;P2;SDS_P1;SDS_P2;PMS_P1;PMS_P2;Temp;Humidity;BMP_temperature;BMP_pressure;BME280_temperature;BME280_humidity;BME280_pressure;Samples;Min_cycle;Max_cycle;Signal;HPM_P1;HPM_P2
2022/03/08 00:01:01;;;;;;;14.05;7.60;;;-0.30;66.40;;;;;;5053326;28;20212;-66
2022/03/08 00:03:28;;;;;;;13.55;7.80;;;-0.40;66.50;;;;;;5053668;28;20205;-67
2022/03/08 00:05:54;;;;;;;11.38;7.00;;;-0.40;66.80;;;;;;5053987;28;20235;-66
2022/03/08 00:08:20;;;;;;;13.05;7.30;;;-0.40;67.10;;;;;;5053872;28;20178;-66
2022/03/08 00:10:46;;;;;;;13.60;7.80;;;-0.50;67.30;;;;;;5052634;28;20186;-67
2022/03/08 00:13:11;;;;;;;14.32;8.15;;;-0.60;67.90;;;;;;5053578;28;20649;-66
2022/03/08 00:15:37;;;;;;;14.45;8.20;;;-0.70;68.50;;;;;;5053792;28;20184;-66
2022/03/08 00:18:03;;;;;;;14.07;7.80;;;-0.80;68.90;;;;;;5053429;28;20188;-66
2022/03/08 00:20:30;;;;;;;15.32;8.02;;;-0.80;69.70;;;;;;5052572;28;20572;-66
2022/03/08 00:22:57;;;;;;;13.30;7.83;;;-0.80;70.40;;;;;;5053505;28;20174;-66
2022/03/08 00:25:22;;;;;;;16.42;8.15;;;-0.80;70.80;;;;;;5053298;28;20215;-66
2022/03/08 00:27:49;;;;;;;15.35;8.00;;;-0.80;71.20;;;;;;5053603;28;20196;-66
2022/03/08 00:30:18;;;;;;;13.43;7.68;;;-0.90;71.40;;;;;;5056600;28;20663;-66
2022/03/08 00:32:44;;;;;;;14.40;7.90;;;-0.90;71.60;;;;;;5052623;28;20665;-66
2022/03/08 00:35:10;;;;;;;13.43;7.65;;;-0.90;71.80;;;;;;5053345;28;20170;-66
2022/03/08 00:37:36;;;;;;;11.93;7.18;;;-0.90;71.90;;;;;;5052781;28;20235;-67
2022/03/08 00:40:05;;;;;;;12.43;7.47;;;-0.90;72.20;;;;;;5052903;28;20544;-66
2022/03/08 00:42:30;;;;;;;12.13;7.00;;;-0.90;72.40;;;;;;5053227;28;20177;-66
2022/03/08 00:44:56;;;;;;;12.83;7.40;;;-0.90;72.60;;;;;;5053186;28;20203;-66
2022/03/08 00:47:21;;;;;;;13.63;7.33;;;-0.90;72.80;;;;;;5052840;28;20269;-66
2022/03/08 00:49:47;;;;;;;13.23;7.57;;;-0.90;73.00;;;;;;5052913;28;20220;-66
2022/03/08 00:52:12;;;;;;;15.73;7.35;;;-0.90;73.30;;;;;;5052969;28;20184;-66
2022/03/08 00:54:38;;;;;;;12.47;7.27;;;-0.90;73.50;;;;;;5053233;28;20588;-66
2022/03/08 00:57:05;;;;;;;15.57;7.50;;;-1.00;73.90;;;;;;5052944;28;20181;-66
2022/03/08 00:59:30;;;;;;;16.13;7.57;;;-1.00;74.20;;;;;;5052834;28;20260;-67
2022/03/08 01:01:56;;;;;;;10.77;6.60;;;-1.00;74.70;;;;;;5052602;28;20217;-67
2022/03/08 01:04:22;;;;;;;13.07;6.63;;;-0.70;83.30;;;;;;5052779;28;20225;-66
2022/03/08 01:06:47;;;;;;;12.77;7.33;;;-0.50;78.00;;;;;;5052862;28;20196;-66
2022/03/08 01:09:13;;;;;;;12.35;6.72;;;-0.60;76.60;;;;;;5052488;28;20182;-67
2022/03/08 01:11:39;;;;;;;12.57;7.25;;;-0.70;76.60;;;;;;5052310;28;20638;-67
2022/03/08 01:14:06;;;;;;;12.32;6.60;;;-0.80;76.80;;;;;;5052316;28;20177;-66
2022/03/08 01:16:33;;;;;;;15.77;7.35;;;-0.80;77.20;;;;;;5052191;28;20335;-66
2022/03/08 01:18:58;;;;;;;14.48;7.18;;;-0.90;77.40;;;;;;5051974;28;20173;-66
2022/03/08 01:21:24;;;;;;;13.95;7.15;;;-0.90;77.60;;;;;;5052554;28;20310;-66
2022/03/08 01:23:49;;;;;;;12.67;6.63;;;-1.00;77.80;;;;;;5052430;28;20177;-66
2022/03/08 01:26:15;;;;;;;13.40;6.43;;;-1.00;78.20;;;;;;5051973;28;20569;-67
2022/03/08 01:28:41;;;;;;;12.52;7.25;;;-1.10;78.50;;;;;;5053344;28;20180;-67
2022/03/08 01:31:06;;;;;;;14.33;7.40;;;-1.10;78.80;;;;;;5052220;28;20170;-66
2022/03/08 01:33:32;;;;;;;10.40;6.85;;;-1.20;79.00;;;;;;5050728;28;20272;-66
2022/03/08 01:35:58;;;;;;;11.27;7.43;;;-1.20;79.20;;;;;;5052049;28;20178;-66
2022/03/08 01:38:23;;;;;;;13.10;7.13;;;-1.20;79.30;;;;;;5052140;28;20835;-66
2022/03/08 01:40:49;;;;;;;15.80;7.50;;;-1.10;79.70;;;;;;5052242;28;20209;-66
2022/03/08 01:43:15;;;;;;;16.45;7.65;;;-1.10;80.00;;;;;;5052306;28;20600;-66
2022/03/08 01:45:42;;;;;;;12.57;7.73;;;-1.20;79.50;;;;;;5051842;28;20185;-66
2022/03/08 01:48:08;;;;;;;13.77;7.25;;;-1.20;79.30;;;;;;5051869;28;20173;-66
2022/03/08 01:50:34;;;;;;;14.03;7.43;;;-1.20;79.60;;;;;;5052298;28;20239;-66
2022/03/08 01:53:00;;;;;;;12.45;6.78;;;-1.20;80.10;;;;;;5050543;28;20213;-66
2022/03/08 01:55:26;;;;;;;11.60;6.82;;;-1.30;80.00;;;;;;5051409;28;20178;-66
2022/03/08 01:57:52;;;;;;;14.63;7.57;;;-1.30;80.00;;;;;;5051595;28;20645;-66
2022/03/08 02:00:22;;;;;;;12.45;7.32;;;-1.30;80.50;;;;;;5051280;28;20204;-66
2022/03/08 02:02:48;;;;;;;17.42;8.38;;;-1.30;81.10;;;;;;5050990;28;20185;-66
2022/03/08 02:05:14;;;;;;;14.53;7.97;;;-1.40;81.40;;;;;;5049856;28;20581;-66
2022/03/08 02:07:39;;;;;;;13.50;7.90;;;-1.40;81.50;;;;;;5045146;28;20182;-66
2022/03/08 02:10:06;;;;;;;13.03;8.17;;;-1.50;81.60;;;;;;5041858;28;20182;-66
2022/03/08 02:12:32;;;;;;;13.30;7.30;;;-1.50;82.00;;;;;;5050736;28;20242;-66
2022/03/08 02:14:58;;;;;;;12.80;7.70;;;-1.60;82.60;;;;;;5040120;28;20268;-66
2022/03/08 02:17:24;;;;;;;14.70;7.83;;;-1.60;83.00;;;;;;5050346;28;20177;-66
2022/03/08 02:19:49;;;;;;;13.70;7.70;;;-1.60;83.40;;;;;;5045881;28;20173;-66
2022/03/08 02:22:15;;;;;;;14.57;6.97;;;-1.70;84.00;;;;;;5042054;28;20189;-66
2022/03/08 02:24:40;;;;;;;16.93;7.50;;;-1.70;84.60;;;;;;5050883;28;20173;-66
2022/03/08 02:27:07;;;;;;;14.87;7.60;;;-1.70;84.90;;;;;;5047929;28;20209;-66
2022/03/08 02:29:33;;;;;;;14.68;7.88;;;-1.70;85.30;;;;;;5052262;28;20192;-66
2022/03/08 02:31:59;;;;;;;13.90;7.50;;;-1.70;86.00;;;;;;5050126;28;20181;-66
2022/03/08 02:34:24;;;;;;;12.43;7.07;;;-1.70;86.10;;;;;;5051281;28;20176;-66
2022/03/08 02:37:00;;;;;;;12.80;7.23;;;-1.80;86.20;;;;;;5051159;28;20595;-66
2022/03/08 02:39:26;;;;;;;14.98;7.63;;;-1.80;86.90;;;;;;5051237;28;20259;-66
2022/03/08 02:41:52;;;;;;;13.83;7.67;;;-1.80;86.60;;;;;;5051147;28;20747;-65
2022/03/08 02:44:17;;;;;;;13.33;7.83;;;-1.90;86.60;;;;;;5055101;28;20176;-66
2022/03/08 02:46:43;;;;;;;15.47;7.27;;;-1.90;87.20;;;;;;5054940;28;20205;-66
2022/03/08 02:49:10;;;;;;;14.15;7.57;;;-1.90;87.90;;;;;;5055170;28;20173;-66
2022/03/08 02:51:35;;;;;;;12.67;7.20;;;-2.00;88.30;;;;;;5054918;28;20173;-66
2022/03/08 02:54:01;;;;;;;12.73;7.03;;;-2.00;89.30;;;;;;5055048;28;20182;-65
2022/03/08 02:56:26;;;;;;;12.77;6.70;;;-2.00;89.50;;;;;;5055097;28;20177;-66
2022/03/08 02:58:52;;;;;;;12.90;7.13;;;-2.00;89.50;;;;;;5055522;28;20200;-66
2022/03/08 03:01:17;;;;;;;15.90;7.37;;;-2.00;89.40;;;;;;5054742;28;20224;-66
2022/03/08 03:03:43;;;;;;;13.63;7.60;;;-2.00;89.50;;;;;;5054502;28;20264;-66
2022/03/08 03:06:09;;;;;;;12.87;7.53;;;-2.00;90.20;;;;;;5054830;28;20184;-66
2022/03/08 03:08:34;;;;;;;13.73;8.13;;;-2.00;90.30;;;;;;5055047;28;20173;-66
2022/03/08 03:10:59;;;;;;;11.33;6.30;;;-2.10;90.40;;;;;;5054794;28;20212;-65
2022/03/08 03:13:25;;;;;;;12.13;7.10;;;-2.10;90.50;;;;;;5053369;28;20652;-65
2022/03/08 03:15:50;;;;;;;10.70;6.13;;;-2.10;90.60;;;;;;5055067;28;20192;-65
2022/03/08 03:18:16;;;;;;;10.57;5.90;;;-2.10;90.50;;;;;;5055048;28;20189;-66
2022/03/08 03:20:42;;;;;;;13.03;6.43;;;-2.10;90.90;;;;;;5053281;28;20201;-65
2022/03/08 03:23:07;;;;;;;11.00;6.60;;;-2.10;90.70;;;;;;5054389;28;20660;-65
2022/03/08 03:25:33;;;;;;;12.37;6.40;;;-2.10;90.80;;;;;;5054552;28;20189;-65
2022/03/08 03:27:58;;;;;;;12.87;6.93;;;-2.10;90.90;;;;;;5054600;28;20264;-65
2022/03/08 03:30:24;;;;;;;12.53;6.90;;;-2.10;91.20;;;;;;5057334;28;20264;-65
2022/03/08 03:32:49;;;;;;;12.10;6.83;;;-2.10;91.50;;;;;;5054568;28;20530;-65
2022/03/08 03:35:15;;;;;;;12.77;6.40;;;-2.20;91.70;;;;;;5054281;28;20525;-65
2022/03/08 03:37:41;;;;;;;14.60;6.30;;;-2.10;92.00;;;;;;5054059;28;20177;-65
2022/03/08 03:40:08;;;;;;;12.33;6.80;;;-2.10;92.10;;;;;;5054237;28;20284;-66
2022/03/08 03:42:33;;;;;;;13.03;7.03;;;-2.10;92.10;;;;;;5053864;28;20219;-66
2022/03/08 03:44:59;;;;;;;12.13;6.73;;;-2.10;92.20;;;;;;5054453;28;20197;-65
2022/03/08 03:47:24;;;;;;;12.77;6.60;;;-2.00;92.20;;;;;;5054155;28;20182;-65
2022/03/08 03:49:50;;;;;;;11.13;6.63;;;-2.00;92.30;;;;;;5054158;28;20190;-66
2022/03/08 03:52:16;;;;;;;13.17;7.00;;;-2.00;92.30;;;;;;5054310;28;20186;-65
2022/03/08 03:54:41;;;;;;;12.63;7.10;;;-2.00;92.40;;;;;;5053014;28;20181;-65
2022/03/08 03:57:09;;;;;;;14.00;6.83;;;-2.00;92.40;;;;;;5054209;28;20173;-65
2022/03/08 03:59:34;;;;;;;12.13;7.07;;;-2.00;92.60;;;;;;5053601;28;20182;-66
2022/03/08 04:02:00;;;;;;;12.47;6.43;;;-2.00;92.60;;;;;;5054044;28;20214;-66
2022/03/08 04:04:26;;;;;;;16.07;8.10;;;-2.00;92.70;;;;;;5053319;28;20715;-66
2022/03/08 04:06:51;;;;;;;13.57;6.73;;;-1.90;92.70;;;;;;5052842;28;20722;-66
2022/03/08 04:09:17;;;;;;;11.10;6.13;;;-1.90;92.80;;;;;;5053630;28;20191;-66
2022/03/08 04:11:43;;;;;;;9.70;7.00;;;-1.90;92.90;;;;;;5053483;28;20189;-67
2022/03/08 04:14:08;;;;;;;11.63;7.00;;;-2.00;92.90;;;;;;5052717;28;20181;-66
2022/03/08 04:16:34;;;;;;;13.43;7.40;;;-2.00;93.00;;;;;;5053379;28;20188;-66
2022/03/08 04:18:59;;;;;;;14.17;7.40;;;-2.00;92.90;;;;;;5053526;28;20193;-66
2022/03/08 04:21:25;;;;;;;12.17;6.87;;;-1.90;93.00;;;;;;5053158;28;20572;-67
2022/03/08 04:23:50;;;;;;;14.67;7.10;;;-1.90;93.00;;;;;;5052145;28;20173;-67
2022/03/08 04:26:16;;;;;;;12.93;6.77;;;-1.90;93.00;;;;;;5053468;28;20656;-67
2022/03/08 04:28:41;;;;;;;13.07;6.57;;;-2.00;93.10;;;;;;5057880;28;20264;-67
2022/03/08 04:31:07;;;;;;;12.03;6.40;;;-2.00;93.10;;;;;;5069535;28;20573;-67
2022/03/08 04:33:33;;;;;;;9.90;6.30;;;-2.00;93.20;;;;;;5052812;28;20189;-67
2022/03/08 04:35:58;;;;;;;10.87;6.23;;;-2.00;93.30;;;;;;5053234;28;20235;-67
2022/03/08 04:38:24;;;;;;;11.07;6.37;;;-2.00;93.30;;;;;;5052770;28;20178;-66
2022/03/08 04:40:49;;;;;;;12.03;6.83;;;-2.00;93.30;;;;;;5053451;28;20216;-67
2022/03/08 04:43:15;;;;;;;11.00;6.67;;;-2.00;93.20;;;;;;5052954;28;20169;-67
2022/03/08 04:45:40;;;;;;;13.33;6.83;;;-1.90;93.40;;;;;;5053029;28;20587;-66
2022/03/08 04:48:06;;;;;;;13.53;7.13;;;-2.00;93.40;;;;;;5052713;28;20660;-66
2022/03/08 04:50:31;;;;;;;18.83;7.97;;;-2.00;93.50;;;;;;5052846;28;20177;-68
2022/03/08 04:52:57;;;;;;;13.03;7.20;;;-1.90;93.50;;;;;;5052198;28;20650;-67
2022/03/08 04:55:23;;;;;;;13.30;7.10;;;-1.90;93.50;;;;;;5053551;28;20182;-67
2022/03/08 04:57:48;;;;;;;12.63;7.13;;;-1.90;93.50;;;;;;5053449;28;20177;-67
2022/03/08 05:00:16;;;;;;;12.87;7.07;;;-1.90;93.20;;;;;;5052946;28;20201;-66
2022/03/08 05:02:43;;;;;;;11.73;7.20;;;-1.90;93.10;;;;;;5053140;28;20218;-69
2022/03/08 05:05:10;;;;;;;12.53;7.03;;;-1.90;93.30;;;;;;5052262;28;20709;-68
2022/03/08 05:07:36;;;;;;;11.40;7.10;;;-1.90;93.50;;;;;;5052047;28;20200;-69
2022/03/08 05:10:07;;;;;;;13.20;7.77;;;-2.00;93.80;;;;;;5052884;28;20178;-68
2022/03/08 05:12:35;;;;;;;13.77;7.77;;;-2.00;94.20;;;;;;5050948;28;20641;-65
2022/03/08 05:15:01;;;;;;;13.17;7.47;;;-2.00;94.30;;;;;;5051607;28;20576;-67
2022/03/08 05:17:26;;;;;;;14.47;8.10;;;-2.00;94.30;;;;;;5052498;28;20181;-68
2022/03/08 05:19:52;;;;;;;13.43;7.63;;;-2.10;94.30;;;;;;5052554;28;20220;-66
2022/03/08 05:22:18;;;;;;;14.63;7.80;;;-2.10;94.40;;;;;;5051874;28;20205;-67
2022/03/08 05:24:44;;;;;;;14.73;7.73;;;-2.10;94.40;;;;;;5052409;28;20643;-67
2022/03/08 05:27:10;;;;;;;16.27;8.13;;;-2.20;94.40;;;;;;5050878;28;20617;-62
2022/03/08 05:29:36;;;;;;;16.07;8.67;;;-2.20;94.40;;;;;;5058186;28;20667;-66
2022/03/08 05:32:02;;;;;;;14.93;7.90;;;-2.30;94.60;;;;;;5052561;28;20292;-63
2022/03/08 05:34:27;;;;;;;16.57;8.37;;;-2.30;94.80;;;;;;5052017;28;20631;-64
2022/03/08 05:36:53;;;;;;;14.77;7.70;;;-2.30;94.90;;;;;;5052477;28;20185;-62
2022/03/08 05:39:19;;;;;;;14.70;8.43;;;-2.40;94.90;;;;;;5052387;28;20173;-62
2022/03/08 05:41:44;;;;;;;16.17;8.57;;;-2.40;95.20;;;;;;5051842;28;20221;-66
2022/03/08 05:44:10;;;;;;;13.10;7.70;;;-2.50;95.30;;;;;;5052465;28;20181;-66
2022/03/08 05:46:36;;;;;;;13.60;7.63;;;-2.50;95.30;;;;;;5051531;28;20217;-63
2022/03/08 05:49:01;;;;;;;14.07;7.90;;;-2.50;95.40;;;;;;5052019;28;20178;-64
2022/03/08 05:51:27;;;;;;;13.87;7.93;;;-2.50;95.40;;;;;;5052073;28;20557;-62
2022/03/08 05:53:52;;;;;;;11.20;7.23;;;-2.40;97.00;;;;;;5051316;28;20281;-62
2022/03/08 05:56:18;;;;;;;13.53;7.83;;;-2.40;96.50;;;;;;5051748;28;20218;-62
2022/03/08 05:58:44;;;;;;;18.60;8.20;;;-2.50;96.10;;;;;;5051339;28;20192;-62
2022/03/08 06:01:09;;;;;;;13.77;8.40;;;-2.50;96.10;;;;;;5051220;28;20217;-62
2022/03/08 06:03:35;;;;;;;14.67;8.00;;;-2.60;96.00;;;;;;5051829;28;20217;-62
2022/03/08 06:06:00;;;;;;;14.23;8.23;;;-2.60;96.10;;;;;;5051598;28;20194;-62
2022/03/08 06:08:26;;;;;;;14.83;7.70;;;-2.60;96.30;;;;;;5051054;28;20189;-62
2022/03/08 06:10:51;;;;;;;12.40;7.03;;;-2.60;96.40;;;;;;5050632;28;20189;-63
2022/03/08 06:13:17;;;;;;;14.23;7.77;;;-2.60;96.20;;;;;;5051981;28;20178;-63
2022/03/08 06:15:42;;;;;;;14.50;6.77;;;-1.90;99.90;;;;;;5051824;28;20193;-63
2022/03/08 06:18:08;;;;;;;12.67;7.13;;;-1.60;99.90;;;;;;5051176;28;20165;-63
2022/03/08 06:20:34;;;;;;;13.77;7.00;;;-1.60;97.50;;;;;;5051899;28;20225;-62
2022/03/08 06:22:59;;;;;;;11.73;7.17;;;-1.70;96.30;;;;;;5051842;28;20200;-63
2022/03/08 06:25:25;;;;;;;15.03;6.87;;;-1.80;95.80;;;;;;5051830;28;20184;-63
2022/03/08 06:27:50;;;;;;;17.53;8.80;;;-1.90;95.80;;;;;;5051580;28;20173;-63
2022/03/08 06:30:16;;;;;;;16.37;9.43;;;-2.10;96.10;;;;;;5052621;28;20166;-63
2022/03/08 06:32:42;;;;;;;12.70;7.43;;;-2.10;96.60;;;;;;5051801;28;20239;-63
2022/03/08 06:35:08;;;;;;;13.50;6.75;;;-2.20;96.90;;;;;;5051969;28;20184;-62
2022/03/08 06:37:33;;;;;;;12.00;7.60;;;-2.20;97.10;;;;;;5051281;28;20193;-62
2022/03/08 06:39:59;;;;;;;15.00;7.20;;;-2.20;97.10;;;;;;5050621;28;20173;-63
2022/03/08 06:42:24;;;;;;;13.37;7.43;;;-2.00;99.20;;;;;;5051272;28;20215;-65
2022/03/08 06:44:50;;;;;;;13.07;7.13;;;-2.00;98.50;;;;;;5051264;28;20268;-63
2022/03/08 06:47:16;;;;;;;12.00;7.03;;;-1.90;97.90;;;;;;5051531;28;20182;-65
2022/03/08 06:49:42;;;;;;;12.20;6.90;;;-1.80;97.50;;;;;;5051585;28;20185;-71
2022/03/08 06:52:09;;;;;;;13.93;7.25;;;-1.80;97.40;;;;;;5051556;28;20192;-70
2022/03/08 06:54:35;;;;;;;12.25;6.88;;;-1.60;97.30;;;;;;5051689;28;20185;-69
2022/03/08 06:57:01;;;;;;;15.00;7.63;;;-1.50;97.10;;;;;;5051309;28;20185;-66
2022/03/08 06:59:27;;;;;;;13.57;7.43;;;-1.30;97.00;;;;;;5050907;28;20188;-65
2022/03/08 07:01:53;;;;;;;11.93;7.03;;;-1.00;96.60;;;;;;5051230;28;20213;-66
2022/03/08 07:04:18;;;;;;;15.90;7.93;;;-0.60;96.00;;;;;;5051182;28;20229;-66
2022/03/08 07:06:44;;;;;;;15.10;7.18;;;-0.30;95.50;;;;;;5051150;28;20459;-69
2022/03/08 07:09:10;;;;;;;13.60;7.30;;;0.20;94.40;;;;;;5051470;28;20177;-70
2022/03/08 07:11:36;;;;;;;13.63;6.95;;;0.60;93.70;;;;;;5051184;28;20551;-70
2022/03/08 07:14:03;;;;;;;16.67;9.20;;;1.00;92.50;;;;;;5050501;28;20201;-69
2022/03/08 07:16:29;;;;;;;17.58;8.50;;;1.50;91.40;;;;;;5051458;28;20209;-70
2022/03/08 07:18:54;;;;;;;12.70;7.28;;;2.00;89.30;;;;;;5050922;28;20224;-71
2022/03/08 07:21:20;;;;;;;13.05;7.13;;;2.40;86.40;;;;;;5051383;28;20217;-71
2022/03/08 07:23:46;;;;;;;10.45;6.97;;;2.80;83.80;;;;;;5034839;28;20178;-69
2022/03/08 07:26:11;;;;;;;11.18;6.68;;;3.10;83.30;;;;;;5031529;28;20178;-70
2022/03/08 07:28:37;;;;;;;10.38;6.72;;;3.30;79.60;;;;;;5035898;28;20178;-70
2022/03/08 07:31:02;;;;;;;12.43;7.40;;;3.50;78.40;;;;;;5045574;28;20563;-70
2022/03/08 07:33:28;;;;;;;13.02;6.13;;;3.90;77.70;;;;;;5053202;28;20221;-70
2022/03/08 07:35:54;;;;;;;10.30;7.38;;;4.20;75.00;;;;;;5055001;28;20188;-70
2022/03/08 07:38:19;;;;;;;10.60;6.95;;;4.60;74.20;;;;;;5055003;28;20178;-70
2022/03/08 07:40:45;;;;;;;10.88;6.50;;;5.00;72.10;;;;;;5053620;28;20660;-69
2022/03/08 07:43:10;;;;;;;9.48;6.45;;;5.40;69.70;;;;;;5054959;28;20629;-69
2022/03/08 07:45:36;;;;;;;11.23;6.78;;;5.70;67.70;;;;;;5054920;28;20182;-69
2022/03/08 07:48:05;;;;;;;11.15;6.88;;;6.10;67.40;;;;;;5054893;28;20185;-70
2022/03/08 07:50:33;;;;;;;8.88;6.55;;;6.60;65.20;;;;;;5054891;28;20264;-70
2022/03/08 07:53:01;;;;;;;8.40;6.18;;;6.90;63.10;;;;;;5054901;28;20268;-70
2022/03/08 07:55:29;;;;;;;10.40;6.60;;;7.30;61.10;;;;;;5054715;28;20276;-70
2022/03/08 07:57:56;;;;;;;11.07;7.00;;;7.70;59.40;;;;;;5054714;28;20189;-70
2022/03/08 08:00:22;;;;;;;10.20;6.85;;;8.00;58.80;;;;;;5054648;28;20193;-70
2022/03/08 08:02:47;;;;;;;9.82;6.65;;;8.10;56.60;;;;;;5054576;28;20527;-70
2022/03/08 08:05:13;;;;;;;10.85;6.57;;;8.10;56.40;;;;;;5054527;28;20232;-70
2022/03/08 08:07:38;;;;;;;10.95;6.55;;;7.90;55.80;;;;;;5054566;28;20189;-70
2022/03/08 08:10:04;;;;;;;10.35;7.10;;;7.90;55.40;;;;;;5054557;28;20169;-70
2022/03/08 08:12:30;;;;;;;10.40;7.03;;;8.00;55.20;;;;;;5053202;28;20177;-70
2022/03/08 08:14:56;;;;;;;12.45;7.00;;;8.00;55.10;;;;;;5054661;28;20694;-71
2022/03/08 08:17:21;;;;;;;10.20;6.95;;;8.20;54.60;;;;;;5054401;28;20260;-70
2022/03/08 08:19:47;;;;;;;12.65;6.45;;;8.20;55.00;;;;;;5054244;28;20173;-70
2022/03/08 08:22:13;;;;;;;8.60;6.38;;;8.30;54.70;;;;;;5054244;28;20213;-71
2022/03/08 08:24:38;;;;;;;9.85;6.00;;;8.50;54.60;;;;;;5054160;28;20184;-70
2022/03/08 08:27:04;;;;;;;10.35;6.18;;;8.70;54.20;;;;;;5054547;28;20217;-71
2022/03/08 08:29:30;;;;;;;10.15;6.45;;;8.90;52.90;;;;;;5053968;28;20200;-70
2022/03/08 08:31:55;;;;;;;11.23;6.55;;;8.80;53.20;;;;;;5054259;28;20176;-71
2022/03/08 08:34:21;;;;;;;10.73;6.88;;;8.90;53.00;;;;;;5054187;28;20181;-70
2022/03/08 08:36:47;;;;;;;10.10;7.05;;;9.10;53.70;;;;;;5053934;28;20178;-70
2022/03/08 08:39:17;;;;;;;11.45;6.53;;;9.50;52.90;;;;;;5054122;28;20188;-71
2022/03/08 08:41:43;;;;;;;7.50;6.28;;;9.80;51.90;;;;;;5053045;28;20695;-70
2022/03/08 08:44:10;;;;;;;11.40;6.57;;;9.80;50.00;;;;;;5053849;28;20174;-71
2022/03/08 08:46:36;;;;;;;7.00;5.35;;;9.70;49.70;;;;;;5053820;28;20173;-71
2022/03/08 08:49:02;;;;;;;11.40;6.68;;;9.60;49.40;;;;;;5053901;28;20636;-70
2022/03/08 08:51:27;;;;;;;9.02;5.68;;;9.40;49.50;;;;;;5053647;28;20220;-70
2022/03/08 08:53:53;;;;;;;10.27;6.03;;;9.30;49.70;;;;;;5053731;28;20209;-71
2022/03/08 08:56:19;;;;;;;8.57;6.20;;;9.10;49.60;;;;;;5053643;28;20667;-70
2022/03/08 08:58:44;;;;;;;10.57;6.57;;;8.90;49.90;;;;;;5053531;28;20197;-70
2022/03/08 09:01:10;;;;;;;11.65;6.82;;;9.00;50.80;;;;;;5053559;28;20700;-70
2022/03/08 09:03:36;;;;;;;9.65;6.70;;;9.20;51.40;;;;;;5053274;28;20676;-70
2022/03/08 09:06:01;;;;;;;9.20;6.53;;;9.50;50.50;;;;;;5053555;28;20228;-70
2022/03/08 09:08:27;;;;;;;9.50;6.50;;;9.70;49.90;;;;;;5053345;28;20254;-70
2022/03/08 09:10:53;;;;;;;8.82;5.60;;;9.70;49.80;;;;;;5053403;28;20291;-70
2022/03/08 09:13:20;;;;;;;8.68;5.85;;;9.90;50.10;;;;;;5053343;28;20643;-70
2022/03/08 09:15:46;;;;;;;8.65;6.20;;;10.00;47.60;;;;;;5053243;28;20647;-70
2022/03/08 09:18:11;;;;;;;10.75;5.55;;;9.90;48.20;;;;;;5053255;28;20181;-70
2022/03/08 09:20:38;;;;;;;8.00;5.55;;;9.70;48.50;;;;;;5053077;28;20576;-70
2022/03/08 09:23:04;;;;;;;9.63;5.80;;;9.60;48.60;;;;;;5053185;28;20188;-70
2022/03/08 09:25:31;;;;;;;8.98;6.25;;;9.30;48.90;;;;;;5053013;28;20181;-70
2022/03/08 09:27:58;;;;;;;9.70;5.75;;;9.00;49.00;;;;;;5053168;28;20204;-70
2022/03/08 09:30:24;;;;;;;11.77;5.97;;;8.80;49.50;;;;;;5071466;28;20682;-70
2022/03/08 09:32:50;;;;;;;9.05;5.80;;;8.70;50.40;;;;;;5072900;28;20238;-71
2022/03/08 09:35:16;;;;;;;8.68;5.22;;;8.80;50.80;;;;;;5072804;28;20177;-70
2022/03/08 09:37:42;;;;;;;9.43;6.32;;;8.80;49.80;;;;;;5072815;28;20180;-70
2022/03/08 09:40:09;;;;;;;6.72;4.85;;;8.70;50.50;;;;;;5072698;28;20537;-70
2022/03/08 09:42:35;;;;;;;6.63;4.60;;;8.60;49.60;;;;;;5071297;28;20188;-70
2022/03/08 09:45:00;;;;;;;6.35;4.90;;;8.40;49.30;;;;;;5072703;28;20214;-70
2022/03/08 09:47:26;;;;;;;5.70;4.70;;;8.50;49.90;;;;;;5072846;28;20263;-70
2022/03/08 09:49:52;;;;;;;9.10;5.28;;;8.60;50.10;;;;;;5072611;28;20583;-71
2022/03/08 09:52:19;;;;;;;7.97;5.30;;;8.60;49.70;;;;;;5072643;28;20283;-71
2022/03/08 09:54:45;;;;;;;8.30;4.97;;;8.60;49.40;;;;;;5072523;28;20184;-71
2022/03/08 09:57:12;;;;;;;6.60;4.63;;;8.50;49.80;;;;;;5072587;28;20621;-70
2022/03/08 09:59:38;;;;;;;6.68;4.88;;;8.50;50.40;;;;;;5072392;28;20191;-71
2022/03/08 10:02:04;;;;;;;8.50;5.15;;;8.60;49.60;;;;;;5071086;28;20216;-70
2022/03/08 10:04:29;;;;;;;8.02;4.80;;;8.60;49.70;;;;;;5072051;28;20224;-70
2022/03/08 10:06:56;;;;;;;7.97;4.95;;;8.80;50.30;;;;;;5072447;28;20529;-71
2022/03/08 10:09:22;;;;;;;7.18;5.15;;;8.90;49.90;;;;;;5072305;28;20181;-71
2022/03/08 10:11:53;;;;;;;6.88;4.50;;;9.00;49.40;;;;;;5072356;28;20230;-70
2022/03/08 10:14:38;;;;;;;8.57;5.05;;;9.10;48.90;;;;;;5072409;28;20173;-71
2022/03/08 10:17:08;;;;;;;9.00;4.95;;;9.10;49.60;;;;;;5072339;28;20208;-71
2022/03/08 10:19:49;;;;;;;10.20;5.32;;;9.30;49.40;;;;;;5072252;28;20562;-71
2022/03/08 10:22:25;;;;;;;7.68;5.03;;;9.40;48.90;;;;;;5072155;28;20208;-71
2022/03/08 10:24:51;;;;;;;9.25;5.30;;;9.50;48.80;;;;;;5072254;28;20172;-72
2022/03/08 10:27:16;;;;;;;9.50;5.85;;;9.70;48.50;;;;;;5072152;28;20674;-71
